sensor_id;sensor_type;location;lat;lon;timestamp;P1;durP1;ratioP1;P2;durP2;ratioP2
7497;SDS011;3790;48.806;9.140;2023-02-25T00:04:00;6.17;;;4.00;;
7497;SDS011;3790;48.806;9.140;2023-02-25T00:09:00;8.80;;;4.17;;
7497;SDS011;3790;48.806;9.140;2023-02-25T00:14:02;5.87;;;4.10;;
7497;SDS011;3790;48.806;9.140;2023-02-25T00:19:02;8.33;;;3.97;;
7497;SDS011;3790;48.806;9.140;2023-02-25T00:24:03;7.30;;;4.07;;
7497;SDS011;3790;48.806;9.140;2023-02-25T00:29:03;8.63;;;4.87;;
7497;SDS011;3790;48.806;9.140;2023-02-25T00:34:05;8.27;;;4.70;;
7497;SDS011;3790;48.806;9.140;2023-02-25T00:39:05;9.80;;;5.13;;
7497;SDS011;3790;48.806;9.140;2023-02-25T00:44:06;7.27;;;4.67;;
7497;SDS011;3790;48.806;9.140;2023-02-25T00:49:07;8.80;;;4.47;;
7497;SDS011;3790;48.806;9.140;2023-02-25T00:54:07;14.73;;;4.33;;
7497;SDS011;3790;48.806;9.140;2023-02-25T00:59:08;5.97;;;3.60;;
7497;SDS011;3790;48.806;9.140;2023-02-25T01:04:08;5.13;;;3.80;;
7497;SDS011;3790;48.806;9.140;2023-02-25T01:09:09;9.50;;;4.67;;
7497;SDS011;3790;48.806;9.140;2023-02-25T01:14:14;7.83;;;3.53;;
7497;SDS011;3790;48.806;9.140;2023-02-25T01:19:22;5.53;;;2.90;;
7497;SDS011;3790;48.806;9.140;2023-02-25T01:24:28;3.97;;;2.50;;
7497;SDS011;3790;48.806;9.140;2023-02-25T01:29:31;6.23;;;3.00;;
7497;SDS011;3790;48.806;9.140;2023-02-25T01:34:38;5.57;;;3.03;;
7497;SDS011;3790;48.806;9.140;2023-02-25T01:39:39;5.43;;;2.70;;
7497;SDS011;3790;48.806;9.140;2023-02-25T01:50:18;4.03;;;2.33;;
7497;SDS011;3790;48.806;9.140;2023-02-25T01:55:20;4.23;;;2.30;;
7497;SDS011;3790;48.806;9.140;2023-02-25T02:00:20;10.30;;;2.87;;
7497;SDS011;3790;48.806;9.140;2023-02-25T02:05:26;5.30;;;2.10;;
7497;SDS011;3790;48.806;9.140;2023-02-25T02:10:39;9.77;;;2.10;;
7497;SDS011;3790;48.806;9.140;2023-02-25T02:15:40;3.17;;;2.00;;
7497;SDS011;3790;48.806;9.140;2023-02-25T02:20:53;3.73;;;2.10;;
7497;SDS011;3790;48.806;9.140;2023-02-25T02:36:57;5.20;;;2.53;;
7497;SDS011;3790;48.806;9.140;2023-02-25T02:47:37;7.03;;;2.37;;
7497;SDS011;3790;48.806;9.140;2023-02-25T02:52:42;5.80;;;2.23;;
7497;SDS011;3790;48.806;9.140;2023-02-25T02:57:48;4.37;;;2.00;;
7497;SDS011;3790;48.806;9.140;2023-02-25T03:03:15;3.70;;;1.70;;
7497;SDS011;3790;48.806;9.140;2023-02-25T03:08:19;6.50;;;2.30;;
7497;SDS011;3790;48.806;9.140;2023-02-25T03:13:24;5.60;;;2.13;;
7497;SDS011;3790;48.806;9.140;2023-02-25T03:18:28;3.10;;;1.83;;
7497;SDS011;3790;48.806;9.140;2023-02-25T03:23:33;2.87;;;1.63;;
7497;SDS011;3790;48.806;9.140;2023-02-25T03:28:38;3.17;;;1.97;;
7497;SDS011;3790;48.806;9.140;2023-02-25T03:33:47;3.67;;;1.97;;
7497;SDS011;3790;48.806;9.140;2023-02-25T03:39:05;4.87;;;1.70;;
7497;SDS011;3790;48.806;9.140;2023-02-25T03:44:11;3.83;;;1.90;;
7497;SDS011;3790;48.806;9.140;2023-02-25T03:49:20;4.63;;;1.63;;
7497;SDS011;3790;48.806;9.140;2023-02-25T03:54:24;4.57;;;1.40;;
7497;SDS011;3790;48.806;9.140;2023-02-25T03:59:26;5.97;;;1.50;;
7497;SDS011;3790;48.806;9.140;2023-02-25T04:04:27;3.80;;;1.60;;
7497;SDS011;3790;48.806;9.140;2023-02-25T04:09:27;3.40;;;1.23;;
7497;SDS011;3790;48.806;9.140;2023-02-25T04:14:28;3.10;;;1.50;;
7497;SDS011;3790;48.806;9.140;2023-02-25T04:19:28;2.57;;;1.20;;
7497;SDS011;3790;48.806;9.140;2023-02-25T04:24:29;4.10;;;1.30;;
7497;SDS011;3790;48.806;9.140;2023-02-25T04:29:29;2.90;;;1.27;;
7497;SDS011;3790;48.806;9.140;2023-02-25T04:34:30;2.57;;;1.00;;
7497;SDS011;3790;48.806;9.140;2023-02-25T04:39:31;4.03;;;1.37;;
7497;SDS011;3790;48.806;9.140;2023-02-25T04:44:31;3.30;;;1.10;;
7497;SDS011;3790;48.806;9.140;2023-02-25T04:49:32;2.27;;;1.10;;
7497;SDS011;3790;48.806;9.140;2023-02-25T04:54:43;5.13;;;1.37;;
7497;SDS011;3790;48.806;9.140;2023-02-25T04:59:44;3.63;;;1.53;;
7497;SDS011;3790;48.806;9.140;2023-02-25T05:04:44;2.97;;;1.00;;
7497;SDS011;3790;48.806;9.140;2023-02-25T05:09:45;2.57;;;1.30;;
7497;SDS011;3790;48.806;9.140;2023-02-25T05:14:45;2.97;;;1.17;;
7497;SDS011;3790;48.806;9.140;2023-02-25T05:19:46;2.13;;;0.70;;
7497;SDS011;3790;48.806;9.140;2023-02-25T05:24:47;3.90;;;1.23;;
7497;SDS011;3790;48.806;9.140;2023-02-25T05:29:47;2.87;;;0.60;;
7497;SDS011;3790;48.806;9.140;2023-02-25T05:34:50;3.50;;;1.00;;
7497;SDS011;3790;48.806;9.140;2023-02-25T05:39:50;2.07;;;1.00;;
7497;SDS011;3790;48.806;9.140;2023-02-25T05:44:51;2.17;;;1.00;;
7497;SDS011;3790;48.806;9.140;2023-02-25T05:49:51;6.10;;;1.17;;
7497;SDS011;3790;48.806;9.140;2023-02-25T05:54:52;2.70;;;1.10;;
7497;SDS011;3790;48.806;9.140;2023-02-25T05:59:52;3.47;;;1.17;;
7497;SDS011;3790;48.806;9.140;2023-02-25T06:04:53;1.13;;;0.80;;
7497;SDS011;3790;48.806;9.140;2023-02-25T06:09:53;1.87;;;0.77;;
7497;SDS011;3790;48.806;9.140;2023-02-25T06:14:59;1.67;;;0.73;;
7497;SDS011;3790;48.806;9.140;2023-02-25T06:19:59;2.20;;;1.10;;
7497;SDS011;3790;48.806;9.140;2023-02-25T06:25:00;4.63;;;1.07;;
7497;SDS011;3790;48.806;9.140;2023-02-25T06:30:01;2.80;;;1.10;;
7497;SDS011;3790;48.806;9.140;2023-02-25T06:35:02;4.83;;;1.03;;
7497;SDS011;3790;48.806;9.140;2023-02-25T06:40:03;3.57;;;1.23;;
7497;SDS011;3790;48.806;9.140;2023-02-25T06:45:04;2.70;;;1.23;;
7497;SDS011;3790;48.806;9.140;2023-02-25T06:50:05;3.23;;;1.10;;
7497;SDS011;3790;48.806;9.140;2023-02-25T06:55:06;2.47;;;1.20;;
7497;SDS011;3790;48.806;9.140;2023-02-25T07:00:07;3.00;;;0.97;;
7497;SDS011;3790;48.806;9.140;2023-02-25T07:05:08;2.57;;;1.20;;
7497;SDS011;3790;48.806;9.140;2023-02-25T07:10:09;3.47;;;1.10;;
7497;SDS011;3790;48.806;9.140;2023-02-25T07:15:10;2.53;;;1.13;;
7497;SDS011;3790;48.806;9.140;2023-02-25T07:20:11;3.43;;;1.20;;
7497;SDS011;3790;48.806;9.140;2023-02-25T07:25:11;2.87;;;1.07;;
7497;SDS011;3790;48.806;9.140;2023-02-25T07:30:12;2.43;;;1.13;;
7497;SDS011;3790;48.806;9.140;2023-02-25T07:35:13;2.50;;;0.93;;
7497;SDS011;3790;48.806;9.140;2023-02-25T07:40:14;1.97;;;0.93;;
7497;SDS011;3790;48.806;9.140;2023-02-25T07:45:15;6.10;;;1.20;;
7497;SDS011;3790;48.806;9.140;2023-02-25T07:50:16;2.70;;;1.13;;
7497;SDS011;3790;48.806;9.140;2023-02-25T07:55:17;3.93;;;0.97;;
7497;SDS011;3790;48.806;9.140;2023-02-25T08:00:17;1.33;;;0.80;;
7497;SDS011;3790;48.806;9.140;2023-02-25T08:05:18;2.63;;;0.97;;
7497;SDS011;3790;48.806;9.140;2023-02-25T08:10:20;2.77;;;0.97;;
7497;SDS011;3790;48.806;9.140;2023-02-25T08:15:21;0.93;;;0.50;;
7497;SDS011;3790;48.806;9.140;2023-02-25T08:20:21;2.20;;;1.00;;
7497;SDS011;3790;48.806;9.140;2023-02-25T08:25:23;2.73;;;0.90;;
7497;SDS011;3790;48.806;9.140;2023-02-25T08:30:23;6.30;;;1.10;;
7497;SDS011;3790;48.806;9.140;2023-02-25T08:35:24;2.60;;;0.90;;
7497;SDS011;3790;48.806;9.140;2023-02-25T08:40:25;3.67;;;1.10;;
7497;SDS011;3790;48.806;9.140;2023-02-25T08:45:25;3.17;;;0.97;;
7497;SDS011;3790;48.806;9.140;2023-02-25T08:50:26;2.60;;;1.20;;
7497;SDS011;3790;48.806;9.140;2023-02-25T08:55:26;2.80;;;1.03;;
7497;SDS011;3790;48.806;9.140;2023-02-25T09:00:27;2.83;;;1.00;;
7497;SDS011;3790;48.806;9.140;2023-02-25T09:05:27;1.90;;;1.00;;
7497;SDS011;3790;48.806;9.140;2023-02-25T09:10:28;3.13;;;1.00;;
7497;SDS011;3790;48.806;9.140;2023-02-25T09:15:29;2.93;;;1.07;;
7497;SDS011;3790;48.806;9.140;2023-02-25T09:20:31;2.27;;;1.10;;
7497;SDS011;3790;48.806;9.140;2023-02-25T09:25:33;2.43;;;0.90;;
7497;SDS011;3790;48.806;9.140;2023-02-25T09:30:34;1.83;;;0.70;;
7497;SDS011;3790;48.806;9.140;2023-02-25T09:35:34;1.47;;;0.60;;
7497;SDS011;3790;48.806;9.140;2023-02-25T09:40:35;0.77;;;0.53;;
7497;SDS011;3790;48.806;9.140;2023-02-25T09:45:36;1.60;;;0.63;;
7497;SDS011;3790;48.806;9.140;2023-02-25T09:50:41;2.47;;;0.63;;
7497;SDS011;3790;48.806;9.140;2023-02-25T09:55:50;2.43;;;0.60;;
7497;SDS011;3790;48.806;9.140;2023-02-25T10:06:02;3.27;;;0.60;;
7497;SDS011;3790;48.806;9.140;2023-02-25T10:11:17;1.07;;;0.60;;
7497;SDS011;3790;48.806;9.140;2023-02-25T10:16:46;1.60;;;0.77;;
7497;SDS011;3790;48.806;9.140;2023-02-25T10:32:33;1.47;;;0.67;;
7497;SDS011;3790;48.806;9.140;2023-02-25T10:37:36;0.80;;;0.50;;
7497;SDS011;3790;48.806;9.140;2023-02-25T10:42:37;2.70;;;0.70;;
7497;SDS011;3790;48.806;9.140;2023-02-25T10:47:39;1.33;;;0.60;;
7497;SDS011;3790;48.806;9.140;2023-02-25T10:52:50;4.37;;;0.70;;
7497;SDS011;3790;48.806;9.140;2023-02-25T10:57:56;0.50;;;0.40;;
7497;SDS011;3790;48.806;9.140;2023-02-25T11:02:58;1.03;;;0.43;;
7497;SDS011;3790;48.806;9.140;2023-02-25T11:08:03;0.77;;;0.40;;
7497;SDS011;3790;48.806;9.140;2023-02-25T11:13:14;1.13;;;0.53;;
7497;SDS011;3790;48.806;9.140;2023-02-25T11:18:30;1.03;;;0.67;;
7497;SDS011;3790;48.806;9.140;2023-02-25T11:23:37;2.60;;;0.90;;
7497;SDS011;3790;48.806;9.140;2023-02-25T11:28:46;2.33;;;1.00;;
7497;SDS011;3790;48.806;9.140;2023-02-25T11:33:49;3.63;;;0.80;;
7497;SDS011;3790;48.806;9.140;2023-02-25T11:39:02;1.63;;;0.90;;
7497;SDS011;3790;48.806;9.140;2023-02-25T11:44:11;2.50;;;0.77;;
7497;SDS011;3790;48.806;9.140;2023-02-25T12:05:15;5.47;;;1.00;;
7497;SDS011;3790;48.806;9.140;2023-02-25T12:38:11;4.87;;;1.20;;
7497;SDS011;3790;48.806;9.140;2023-02-25T12:43:38;1.47;;;0.93;;
7497;SDS011;3790;48.806;9.140;2023-02-25T12:49:00;3.70;;;1.43;;
7497;SDS011;3790;48.806;9.140;2023-02-25T12:59:41;2.80;;;1.10;;
7497;SDS011;3790;48.806;9.140;2023-02-25T13:05:16;3.07;;;1.30;;
7497;SDS011;3790;48.806;9.140;2023-02-25T13:10:44;11.07;;;1.27;;
7497;SDS011;3790;48.806;9.140;2023-02-25T13:21:58;1.90;;;1.00;;
7497;SDS011;3790;48.806;9.140;2023-02-25T14:05:11;2.73;;;0.90;;
7497;SDS011;3790;48.806;9.140;2023-02-25T14:10:28;2.60;;;0.93;;
7497;SDS011;3790;48.806;9.140;2023-02-25T14:15:52;3.67;;;1.10;;
7497;SDS011;3790;48.806;9.140;2023-02-25T14:21:08;1.97;;;1.00;;
7497;SDS011;3790;48.806;9.140;2023-02-25T14:26:31;1.93;;;0.90;;
7497;SDS011;3790;48.806;9.140;2023-02-25T14:36:55;2.63;;;1.30;;
7497;SDS011;3790;48.806;9.140;2023-02-25T14:42:05;1.53;;;0.80;;
7497;SDS011;3790;48.806;9.140;2023-02-25T14:47:20;1.67;;;0.80;;
7497;SDS011;3790;48.806;9.140;2023-02-25T14:52:47;2.20;;;1.00;;
7497;SDS011;3790;48.806;9.140;2023-02-25T15:09:07;6.73;;;1.40;;
7497;SDS011;3790;48.806;9.140;2023-02-25T15:19:30;2.43;;;1.13;;
7497;SDS011;3790;48.806;9.140;2023-02-25T15:24:38;5.17;;;1.17;;
7497;SDS011;3790;48.806;9.140;2023-02-25T15:35:06;3.07;;;1.30;;
7497;SDS011;3790;48.806;9.140;2023-02-25T15:55:42;2.97;;;1.10;;
7497;SDS011;3790;48.806;9.140;2023-02-25T16:00:51;5.10;;;1.40;;
7497;SDS011;3790;48.806;9.140;2023-02-25T16:05:52;3.80;;;1.53;;
7497;SDS011;3790;48.806;9.140;2023-02-25T16:10:58;3.57;;;1.33;;
7497;SDS011;3790;48.806;9.140;2023-02-25T16:16:00;5.80;;;2.10;;
7497;SDS011;3790;48.806;9.140;2023-02-25T16:21:06;3.00;;;1.57;;
7497;SDS011;3790;48.806;9.140;2023-02-25T16:26:39;5.90;;;1.90;;
7497;SDS011;3790;48.806;9.140;2023-02-25T16:32:03;5.63;;;1.77;;
7497;SDS011;3790;48.806;9.140;2023-02-25T16:37:19;6.70;;;1.90;;
7497;SDS011;3790;48.806;9.140;2023-02-25T16:42:32;6.13;;;1.83;;
7497;SDS011;3790;48.806;9.140;2023-02-25T16:47:34;7.43;;;2.50;;
7497;SDS011;3790;48.806;9.140;2023-02-25T16:52:36;5.17;;;1.93;;
7497;SDS011;3790;48.806;9.140;2023-02-25T16:57:59;6.50;;;2.53;;
7497;SDS011;3790;48.806;9.140;2023-02-25T17:03:08;4.83;;;1.90;;
7497;SDS011;3790;48.806;9.140;2023-02-25T17:08:14;6.30;;;1.87;;
7497;SDS011;3790;48.806;9.140;2023-02-25T17:13:21;8.90;;;1.87;;
7497;SDS011;3790;48.806;9.140;2023-02-25T17:18:31;6.07;;;2.13;;
7497;SDS011;3790;48.806;9.140;2023-02-25T17:23:39;4.80;;;1.97;;
7497;SDS011;3790;48.806;9.140;2023-02-25T17:28:41;5.33;;;1.90;;
7497;SDS011;3790;48.806;9.140;2023-02-25T17:33:46;4.20;;;2.00;;
7497;SDS011;3790;48.806;9.140;2023-02-25T17:38:57;2.73;;;1.07;;
7497;SDS011;3790;48.806;9.140;2023-02-25T17:44:00;5.50;;;1.20;;
7497;SDS011;3790;48.806;9.140;2023-02-25T17:49:02;4.13;;;1.30;;
7497;SDS011;3790;48.806;9.140;2023-02-25T17:54:19;3.47;;;1.30;;
7497;SDS011;3790;48.806;9.140;2023-02-25T18:04:34;2.57;;;1.30;;
7497;SDS011;3790;48.806;9.140;2023-02-25T18:09:37;2.23;;;1.20;;
7497;SDS011;3790;48.806;9.140;2023-02-25T18:14:42;2.87;;;1.20;;
7497;SDS011;3790;48.806;9.140;2023-02-25T18:19:44;2.03;;;1.10;;
7497;SDS011;3790;48.806;9.140;2023-02-25T18:24:49;1.30;;;0.90;;
7497;SDS011;3790;48.806;9.140;2023-02-25T18:29:52;1.87;;;1.00;;
7497;SDS011;3790;48.806;9.140;2023-02-25T18:35:12;4.07;;;1.37;;
7497;SDS011;3790;48.806;9.140;2023-02-25T18:40:24;4.47;;;1.83;;
7497;SDS011;3790;48.806;9.140;2023-02-25T18:45:30;3.53;;;1.90;;
7497;SDS011;3790;48.806;9.140;2023-02-25T18:50:32;3.60;;;1.70;;
7497;SDS011;3790;48.806;9.140;2023-02-25T18:55:32;6.60;;;1.87;;
7497;SDS011;3790;48.806;9.140;2023-02-25T19:00:35;3.27;;;1.73;;
7497;SDS011;3790;48.806;9.140;2023-02-25T19:05:36;4.23;;;1.70;;
7497;SDS011;3790;48.806;9.140;2023-02-25T19:10:36;3.47;;;1.87;;
7497;SDS011;3790;48.806;9.140;2023-02-25T19:15:37;4.80;;;2.10;;
7497;SDS011;3790;48.806;9.140;2023-02-25T19:20:37;4.57;;;2.10;;
7497;SDS011;3790;48.806;9.140;2023-02-25T19:25:38;8.20;;;2.03;;
7497;SDS011;3790;48.806;9.140;2023-02-25T19:30:40;3.67;;;2.17;;
7497;SDS011;3790;48.806;9.140;2023-02-25T19:35:42;4.30;;;2.10;;
7497;SDS011;3790;48.806;9.140;2023-02-25T19:40:43;3.83;;;2.27;;
7497;SDS011;3790;48.806;9.140;2023-02-25T19:45:44;2.97;;;1.80;;
7497;SDS011;3790;48.806;9.140;2023-02-25T19:50:46;6.47;;;2.40;;
7497;SDS011;3790;48.806;9.140;2023-02-25T19:55:46;5.30;;;2.43;;
7497;SDS011;3790;48.806;9.140;2023-02-25T20:00:47;4.10;;;2.00;;
7497;SDS011;3790;48.806;9.140;2023-02-25T20:05:47;5.17;;;2.53;;
7497;SDS011;3790;48.806;9.140;2023-02-25T20:10:48;4.87;;;2.30;;
7497;SDS011;3790;48.806;9.140;2023-02-25T20:15:48;4.87;;;2.40;;
7497;SDS011;3790;48.806;9.140;2023-02-25T20:20:57;4.40;;;2.43;;
7497;SDS011;3790;48.806;9.140;2023-02-25T20:26:05;4.20;;;1.50;;
7497;SDS011;3790;48.806;9.140;2023-02-25T20:31:08;8.93;;;2.53;;
7497;SDS011;3790;48.806;9.140;2023-02-25T20:36:13;4.10;;;2.27;;
7497;SDS011;3790;48.806;9.140;2023-02-25T20:41:27;6.93;;;2.00;;
7497;SDS011;3790;48.806;9.140;2023-02-25T20:46:28;6.60;;;1.77;;
7497;SDS011;3790;48.806;9.140;2023-02-25T20:51:29;3.37;;;1.43;;
7497;SDS011;3790;48.806;9.140;2023-02-25T20:56:30;6.13;;;1.97;;
7497;SDS011;3790;48.806;9.140;2023-02-25T21:01:33;4.23;;;1.67;;
7497;SDS011;3790;48.806;9.140;2023-02-25T21:06:34;3.07;;;1.53;;
7497;SDS011;3790;48.806;9.140;2023-02-25T21:11:34;2.57;;;1.10;;
7497;SDS011;3790;48.806;9.140;2023-02-25T21:16:35;3.87;;;1.60;;
7497;SDS011;3790;48.806;9.140;2023-02-25T21:21:36;4.27;;;1.73;;
7497;SDS011;3790;48.806;9.140;2023-02-25T21:26:37;4.60;;;1.60;;
7497;SDS011;3790;48.806;9.140;2023-02-25T21:31:38;2.43;;;1.20;;
7497;SDS011;3790;48.806;9.140;2023-02-25T21:36:40;3.13;;;1.33;;
7497;SDS011;3790;48.806;9.140;2023-02-25T21:41:41;4.50;;;2.00;;
7497;SDS011;3790;48.806;9.140;2023-02-25T21:46:41;1.87;;;1.23;;
7497;SDS011;3790;48.806;9.140;2023-02-25T21:51:42;3.10;;;0.90;;
7497;SDS011;3790;48.806;9.140;2023-02-25T21:56:42;2.80;;;1.10;;
7497;SDS011;3790;48.806;9.140;2023-02-25T22:01:43;2.10;;;1.20;;
7497;SDS011;3790;48.806;9.140;2023-02-25T22:06:44;2.43;;;1.20;;
7497;SDS011;3790;48.806;9.140;2023-02-25T22:11:48;9.43;;;1.40;;
7497;SDS011;3790;48.806;9.140;2023-02-25T22:16:48;1.83;;;1.10;;
7497;SDS011;3790;48.806;9.140;2023-02-25T22:21:49;5.73;;;1.00;;
7497;SDS011;3790;48.806;9.140;2023-02-25T22:26:50;1.87;;;0.93;;
7497;SDS011;3790;48.806;9.140;2023-02-25T22:31:51;2.37;;;1.20;;
7497;SDS011;3790;48.806;9.140;2023-02-25T22:36:51;3.40;;;1.10;;
7497;SDS011;3790;48.806;9.140;2023-02-25T22:41:52;1.97;;;0.97;;
7497;SDS011;3790;48.806;9.140;2023-02-25T22:46:52;2.27;;;0.93;;
7497;SDS011;3790;48.806;9.140;2023-02-25T22:51:53;5.37;;;1.10;;
7497;SDS011;3790;48.806;9.140;2023-02-25T22:56:54;2.33;;;1.30;;
7497;SDS011;3790;48.806;9.140;2023-02-25T23:01:57;2.90;;;1.17;;
7497;SDS011;3790;48.806;9.140;2023-02-25T23:06:58;2.77;;;1.07;;
7497;SDS011;3790;48.806;9.140;2023-02-25T23:12:00;2.27;;;1.00;;
7497;SDS011;3790;48.806;9.140;2023-02-25T23:17:00;2.50;;;1.40;;
7497;SDS011;3790;48.806;9.140;2023-02-25T23:22:08;2.53;;;1.37;;
7497;SDS011;3790;48.806;9.140;2023-02-25T23:27:09;3.60;;;1.40;;
7497;SDS011;3790;48.806;9.140;2023-02-25T23:32:09;5.13;;;1.50;;
7497;SDS011;3790;48.806;9.140;2023-02-25T23:37:10;2.93;;;1.40;;
7497;SDS011;3790;48.806;9.140;2023-02-25T23:42:10;2.63;;;1.17;;
7497;SDS011;3790;48.806;9.140;2023-02-25T23:47:11;1.70;;;0.90;;
7497;SDS011;3790;48.806;9.140;2023-02-25T23:52:11;5.23;;;1.43;;
7497;SDS011;3790;48.806;9.140;2023-02-25T23:57:12;3.50;;;1.37;;
